createdAt,value
2023-09-08T00:02:14.488Z,101826.84
2023-09-08T00:04:41.127Z,101834.72
2023-09-08T00:07:07.749Z,101844.63
2023-09-08T00:09:34.395Z,101835.19
2023-09-08T00:12:01.140Z,101834.84
2023-09-08T00:14:27.886Z,101831.72
2023-09-08T00:16:55.755Z,101819.94
2023-09-08T00:19:24.261Z,101821.56
2023-09-08T00:21:51.199Z,101821.56
2023-09-08T00:24:18.893Z,101827.91
2023-09-08T00:26:45.744Z,101829.06
2023-09-08T00:29:12.646Z,101833.84
2023-09-08T00:31:39.361Z,101835.06
2023-09-08T00:34:07.766Z,101837.44
2023-09-08T00:36:34.753Z,101828.75
2023-09-08T00:39:01.689Z,101829.16
2023-09-08T00:41:28.324Z,101828.81
2023-09-08T00:43:54.939Z,101833.97
2023-09-08T00:46:21.799Z,101826.88
2023-09-08T00:48:48.430Z,101827.72
2023-09-08T00:51:15.510Z,101833.63
2023-09-08T00:53:42.258Z,101836.78
2023-09-08T00:56:10.309Z,101828.13
2023-09-08T00:58:37.318Z,101836.47
2023-09-08T01:01:04.253Z,101823.50
2023-09-08T01:03:30.960Z,101822.78
2023-09-08T01:05:57.705Z,101825.56
2023-09-08T01:08:24.617Z,101820.44
2023-09-08T01:10:51.214Z,101819.69
2023-09-08T01:13:18.854Z,101817.31
2023-09-08T01:15:45.467Z,101815.78
2023-09-08T01:18:12.148Z,101822.88
2023-09-08T01:20:58.391Z,101821.31
2023-09-08T01:23:38.220Z,101821.31
2023-09-08T01:26:11.324Z,101826.09
2023-09-08T01:28:40.162Z,101815.47
2023-09-08T01:31:07.171Z,101818.63
2023-09-08T01:33:34.507Z,101826.53
2023-09-08T01:36:01.530Z,101821.00
2023-09-08T01:38:28.321Z,101825.38
2023-09-08T01:40:55.086Z,101820.25
2023-09-08T01:43:21.693Z,101820.25
2023-09-08T01:45:48.341Z,101823.44
2023-09-08T01:48:15.001Z,101823.44
2023-09-08T01:50:41.657Z,101819.53
2023-09-08T01:53:08.370Z,101814.06
2023-09-08T01:55:35.079Z,101816.03
2023-09-08T01:58:01.960Z,101819.97
2023-09-08T02:00:28.632Z,101813.69
2023-09-08T02:02:55.301Z,101820.03
2023-09-08T02:05:22.125Z,101814.16
2023-09-08T02:07:48.838Z,101815.34
2023-09-08T02:10:15.638Z,101820.84
2023-09-08T02:12:42.182Z,101814.19
2023-09-08T02:15:10.217Z,101817.34
2023-09-08T02:17:36.871Z,101817.38
2023-09-08T02:20:04.493Z,101813.06
2023-09-08T02:22:31.048Z,101814.25
2023-09-08T02:24:59.109Z,101812.69
2023-09-08T02:27:25.817Z,101807.22
2023-09-08T02:29:52.575Z,101804.88
2023-09-08T02:32:19.225Z,101807.25
2023-09-08T02:34:45.850Z,101799.78
2023-09-08T02:37:12.541Z,101812.34
2023-09-08T02:39:39.160Z,101801.31
2023-09-08T02:42:05.799Z,101806.81
2023-09-08T02:44:33.478Z,101805.28
2023-09-08T02:47:00.045Z,101803.75
2023-09-08T02:49:26.745Z,101805.72
2023-09-08T02:51:53.325Z,101805.34
2023-09-08T02:54:19.951Z,101803.38
2023-09-08T02:56:46.528Z,101813.59
2023-09-08T02:59:13.107Z,101813.59
2023-09-08T03:01:39.725Z,101807.69
2023-09-08T03:04:06.687Z,101814.38
2023-09-08T03:06:33.374Z,101808.91
2023-09-08T03:09:00.252Z,101805.78
2023-09-08T03:11:26.822Z,101804.19
2023-09-08T03:13:53.463Z,101811.28
2023-09-08T03:16:20.251Z,101807.75
2023-09-08T03:18:46.974Z,101805.78
2023-09-08T03:21:15.420Z,101801.09
2023-09-08T03:23:44.360Z,101807.00
2023-09-08T03:26:11.642Z,101804.66
2023-09-08T03:28:39.973Z,101805.47
2023-09-08T03:31:06.844Z,101796.81
2023-09-08T03:33:34.044Z,101797.22
2023-09-08T03:36:01.175Z,101788.22
2023-09-08T03:38:27.919Z,101794.53
2023-09-08T03:40:54.540Z,101788.66
2023-09-08T03:43:21.232Z,101793.38
2023-09-08T03:45:48.551Z,101791.41
2023-09-08T03:48:15.346Z,101787.06
2023-09-08T03:50:43.170Z,101786.72
2023-09-08T03:53:11.861Z,101796.13
2023-09-08T03:55:38.402Z,101795.38
2023-09-08T03:58:05.061Z,101787.56
2023-09-08T04:00:31.765Z,101781.28
2023-09-08T04:02:58.612Z,101784.03
2023-09-08T04:05:25.333Z,101779.72
2023-09-08T04:07:51.985Z,101774.22
2023-09-08T04:10:18.610Z,101779.72
2023-09-08T04:12:45.655Z,101783.66
2023-09-08T04:15:12.373Z,101776.56
2023-09-08T04:17:39.140Z,101784.44
2023-09-08T04:20:07.477Z,101786.81
2023-09-08T04:22:34.707Z,101779.75
2023-09-08T04:25:01.878Z,101782.13
2023-09-08T04:27:28.494Z,101787.22
2023-09-08T04:29:55.179Z,101784.09
2023-09-08T04:32:21.769Z,101789.22
2023-09-08T04:34:48.358Z,101777.84
2023-09-08T04:37:15.292Z,101784.91
2023-09-08T04:39:41.904Z,101782.16
2023-09-08T04:42:08.725Z,101775.88
2023-09-08T04:44:35.289Z,101780.97
2023-09-08T04:47:02.005Z,101785.31
2023-09-08T04:49:30.148Z,101774.31
2023-09-08T04:51:57.362Z,101779.84
2023-09-08T04:54:27.605Z,101776.72
2023-09-08T04:57:03.974Z,101781.41
2023-09-08T04:59:41.329Z,101781.03
2023-09-08T05:02:07.987Z,101783.00
2023-09-08T05:04:34.654Z,101781.41
2023-09-08T05:07:01.354Z,101784.97
2023-09-08T05:09:27.947Z,101784.16
2023-09-08T05:11:54.510Z,101783.00
2023-09-08T05:14:21.220Z,101777.94
2023-09-08T05:16:50.029Z,101782.63
2023-09-08T05:19:16.627Z,101782.63
2023-09-08T05:21:44.604Z,101784.97
2023-09-08T05:24:11.398Z,101783.00
2023-09-08T05:26:39.773Z,101787.34
2023-09-08T05:29:06.672Z,101787.34
2023-09-08T05:31:33.520Z,101791.25
2023-09-08T05:34:00.240Z,101789.72
2023-09-08T05:36:26.979Z,101792.44
2023-09-08T05:38:53.834Z,101793.22
2023-09-08T05:41:20.540Z,101794.00
2023-09-08T05:43:47.396Z,101794.00
2023-09-08T05:46:14.346Z,101799.50
2023-09-08T05:48:41.076Z,101799.88
2023-09-08T05:51:07.755Z,101797.53
2023-09-08T05:53:36.567Z,101798.28
2023-09-08T05:56:03.453Z,101800.66
2023-09-08T05:58:30.544Z,101804.19
2023-09-08T06:00:57.238Z,101812.81
2023-09-08T06:03:24.013Z,101812.03
2023-09-08T06:05:50.775Z,101808.84
2023-09-08T06:08:18.448Z,101813.56
2023-09-08T06:10:45.076Z,101815.88
2023-09-08T06:13:11.738Z,101810.38
2023-09-08T06:15:38.508Z,101815.06
2023-09-08T06:18:05.658Z,101815.44
2023-09-08T06:20:32.663Z,101826.03
2023-09-08T06:22:59.507Z,101817.34
2023-09-08T06:25:27.326Z,101818.13
2023-09-08T06:27:54.326Z,101819.25
2023-09-08T06:30:21.041Z,101812.53
2023-09-08T06:32:47.755Z,101814.09
2023-09-08T06:35:14.655Z,101812.88
2023-09-08T06:37:41.299Z,101815.19
2023-09-08T06:40:08.323Z,101818.69
2023-09-08T06:42:35.008Z,101824.16
2023-09-08T06:45:03.831Z,101823.25
2023-09-08T06:47:30.614Z,101823.16
2023-09-08T06:49:57.412Z,101825.00
2023-09-08T06:52:24.160Z,101824.06
2023-09-08T06:54:50.762Z,101827.06
2023-09-08T06:57:20.835Z,101829.63
2023-09-08T06:59:47.643Z,101835.78
2023-09-08T07:02:14.843Z,101834.84
2023-09-08T07:04:41.608Z,101839.38
2023-09-08T07:07:08.865Z,101832.16
2023-09-08T07:09:36.866Z,101830.81
2023-09-08T07:12:05.057Z,101835.38
2023-09-08T07:14:32.464Z,101842.72
2023-09-08T07:16:59.880Z,101836.66
2023-09-08T07:19:28.180Z,101838.06
2023-09-08T07:21:55.103Z,101841.44
2023-09-08T07:24:23.943Z,101839.31
2023-09-08T07:26:51.789Z,101843.88
2023-09-08T07:29:18.484Z,101836.25
2023-09-08T07:31:45.156Z,101834.16
2023-09-08T07:34:11.815Z,101833.25
2023-09-08T07:36:38.450Z,101840.19
2023-09-08T07:39:05.537Z,101848.34
2023-09-08T07:41:32.225Z,101846.28
2023-09-08T07:43:58.936Z,101839.16
2023-09-08T07:46:25.589Z,101841.03
2023-09-08T07:48:52.369Z,101837.00
2023-09-08T07:51:18.981Z,101844.78
2023-09-08T07:53:45.686Z,101849.81
2023-09-08T07:56:12.312Z,101841.88
2023-09-08T07:58:40.769Z,101849.38
2023-09-08T08:01:08.507Z,101840.22
2023-09-08T08:03:36.753Z,101843.34
2023-09-08T08:06:03.756Z,101841.72
2023-09-08T08:08:31.563Z,101833.78
2023-09-08T08:10:58.428Z,101845.97
2023-09-08T08:13:25.129Z,101838.47
2023-09-08T08:15:51.818Z,101836.06
2023-09-08T08:18:20.084Z,101833.66
2023-09-08T08:20:46.821Z,101837.53
2023-09-08T08:23:14.130Z,101841.34
2023-09-08T08:25:40.664Z,101841.28
2023-09-08T08:28:07.288Z,101831.34
2023-09-08T08:30:34.112Z,101832.47
2023-09-08T08:33:00.889Z,101830.50
2023-09-08T08:35:28.633Z,101819.75
2023-09-08T08:37:55.242Z,101818.94
2023-09-08T08:40:23.108Z,101827.94
2023-09-08T08:42:55.657Z,101828.63
2023-09-08T08:45:26.010Z,101827.34
2023-09-08T08:47:53.523Z,101826.47
2023-09-08T08:50:21.140Z,101823.53
2023-09-08T08:52:48.142Z,101827.44
2023-09-08T08:55:16.694Z,101829.03
2023-09-08T08:57:44.116Z,101829.72
2023-09-08T09:00:13.978Z,101825.31
2023-09-08T09:02:42.491Z,101839.06
2023-09-08T09:05:13.048Z,101825.50
2023-09-08T09:07:41.417Z,101832.50
2023-09-08T09:10:08.847Z,101833.19
2023-09-08T09:12:38.755Z,101837.78
2023-09-08T09:15:06.024Z,101837.69
2023-09-08T09:17:34.258Z,101831.72
2023-09-08T09:20:21.186Z,101836.28
2023-09-08T09:22:48.669Z,101836.88
2023-09-08T09:25:24.927Z,101830.06
2023-09-08T09:27:53.407Z,101834.72
2023-09-08T09:30:20.165Z,101830.66
2023-09-08T09:32:46.971Z,101834.47
2023-09-08T09:35:13.597Z,101832.03
2023-09-08T09:37:42.877Z,101831.06
2023-09-08T09:40:11.882Z,101837.22
2023-09-08T09:42:41.383Z,101833.81
2023-09-08T09:45:09.786Z,101835.19
2023-09-08T09:47:36.782Z,101829.88
2023-09-08T09:50:03.590Z,101830.91
2023-09-08T09:52:32.531Z,101836.59
2023-09-08T09:54:59.529Z,101833.09
2023-09-08T09:57:26.538Z,101831.75
2023-09-08T09:59:56.029Z,101827.66
2023-09-08T10:02:23.718Z,101832.91
2023-09-08T10:04:51.725Z,101830.81
2023-09-08T10:07:19.152Z,101826.59
2023-09-08T10:09:46.221Z,101829.50
2023-09-08T10:12:17.014Z,101837.72
2023-09-08T10:14:44.467Z,101833.94
2023-09-08T10:17:17.839Z,101830.94
2023-09-08T10:22:23.579Z,101832.38
2023-09-08T10:24:51.737Z,101830.25
2023-09-08T10:27:21.586Z,101830.03
2023-09-08T10:29:49.337Z,101826.56
2023-09-08T10:32:17.770Z,101831.91
2023-09-08T10:34:46.417Z,101830.78
2023-09-08T10:37:23.641Z,101832.84
2023-09-08T10:39:52.482Z,101820.72
2023-09-08T10:42:27.088Z,101826.81
2023-09-08T10:44:59.068Z,101822.69
2023-09-08T10:47:31.601Z,101820.75
2023-09-08T10:50:00.766Z,101818.03
2023-09-08T10:52:29.950Z,101815.78
2023-09-08T10:54:57.175Z,101812.66
2023-09-08T10:57:25.742Z,101816.38
2023-09-08T10:59:53.695Z,101819.69
2023-09-08T11:05:30.964Z,101817.78
2023-09-08T11:07:57.700Z,101817.53
2023-09-08T11:10:24.749Z,101818.00
2023-09-08T11:12:55.265Z,101813.09
2023-09-08T11:15:22.033Z,101817.59
2023-09-08T11:17:52.178Z,101815.31
2023-09-08T11:20:28.127Z,101818.75
2023-09-08T11:22:55.953Z,101818.94
2023-09-08T11:25:23.583Z,101815.22
2023-09-08T11:27:51.386Z,101816.31
2023-09-08T11:30:20.079Z,101818.97
2023-09-08T11:33:02.082Z,101825.00
2023-09-08T11:35:29.268Z,101822.25
2023-09-08T11:38:01.258Z,101818.06
2023-09-08T11:40:28.040Z,101819.63
2023-09-08T11:42:54.855Z,101818.88
2023-09-08T11:45:23.752Z,101813.13
2023-09-08T11:47:50.737Z,101818.88
2023-09-08T11:50:19.990Z,101819.19
2023-09-08T11:52:48.352Z,101813.00
2023-09-08T11:55:16.138Z,101817.63
2023-09-08T11:57:44.561Z,101817.84
2023-09-08T12:00:17.199Z,101819.09
2023-09-08T12:02:44.202Z,101809.81
2023-09-08T12:05:14.655Z,101814.75
2023-09-08T12:07:41.504Z,101808.72
2023-09-08T12:10:11.605Z,101814.59
2023-09-08T12:12:44.411Z,101806.88
2023-09-08T12:15:11.166Z,101805.63
2023-09-08T12:17:50.893Z,101816.63
2023-09-08T12:20:18.176Z,101814.75
2023-09-08T12:22:51.011Z,101806.69
2023-09-08T12:25:18.391Z,101808.25
2023-09-08T12:27:47.476Z,101809.66
2023-09-08T12:30:19.662Z,101809.78
2023-09-08T12:32:49.873Z,101812.44
2023-09-08T12:35:23.694Z,101804.19
2023-09-08T12:38:02.858Z,101799.25
2023-09-08T12:40:30.909Z,101800.19
2023-09-08T12:43:13.032Z,101801.72
2023-09-08T12:45:47.579Z,101801.72
2023-09-08T12:48:14.342Z,101794.59
2023-09-08T12:50:42.435Z,101796.44
2023-09-08T12:53:09.656Z,101797.81
2023-09-08T12:55:36.228Z,101790.25
2023-09-08T12:58:02.866Z,101791.16
2023-09-08T13:00:32.403Z,101794.25
2023-09-08T13:09:56.808Z,101784.19
2023-09-08T13:11:57.134Z,101779.53
2023-09-08T13:12:23.659Z,101784.47
2023-09-08T13:14:50.552Z,101787.09
2023-09-08T13:17:17.316Z,101782.56
2023-09-08T13:19:45.587Z,101776.53
2023-09-08T13:22:12.309Z,101776.84
2023-09-08T13:24:39.017Z,101772.00
2023-09-08T13:27:06.126Z,101770.78
2023-09-08T13:29:32.856Z,101769.84
2023-09-08T13:31:59.555Z,101772.94
2023-09-08T13:34:27.604Z,101765.63
2023-09-08T13:36:54.371Z,101768.72
2023-09-08T13:39:20.926Z,101768.25
2023-09-08T13:41:58.245Z,101767.31
2023-09-08T13:44:25.668Z,101769.94
2023-09-08T13:46:54.848Z,101764.97
2023-09-08T13:49:23.363Z,101763.22
2023-09-08T13:51:53.618Z,101764.59
2023-09-08T13:54:24.787Z,101758.38
2023-09-08T13:57:01.617Z,101755.59
2023-09-08T13:59:34.570Z,101753.22
2023-09-08T14:04:39.795Z,101757.97
2023-09-08T14:07:09.018Z,101752.69
2023-09-08T14:09:53.773Z,101761.84
2023-09-08T14:13:36.695Z,101760.91
2023-09-08T14:51:28.705Z,101744.41
2023-09-08T15:52:55.259Z,101728.44
2023-09-08T16:28:39.117Z,101717.97
2023-09-08T16:36:21.497Z,101718.00
2023-09-08T16:41:00.536Z,101713.22
2023-09-08T16:46:28.686Z,101705.06
2023-09-08T16:52:10.216Z,101711.13
2023-09-08T16:54:38.504Z,101704.63
2023-09-08T16:57:33.098Z,101717.16
2023-09-08T17:00:01.939Z,101711.47
2023-09-08T17:02:30.590Z,101715.16
2023-09-08T17:05:25.448Z,101709.47
2023-09-08T17:07:53.500Z,101708.53
2023-09-08T17:10:22.859Z,101709.16
2023-09-08T17:12:52.043Z,101712.06
2023-09-08T17:15:20.164Z,101711.44
2023-09-08T17:17:47.024Z,101707.25
2023-09-08T17:25:44.652Z,101709.91
2023-09-08T17:28:12.102Z,101711.75
2023-09-08T17:30:38.801Z,101709.13
2023-09-08T17:33:24.044Z,101711.00
2023-09-08T17:35:50.860Z,101712.81
2023-09-08T17:38:20.878Z,101710.66
2023-09-08T17:41:00.452Z,101714.03
2023-09-08T17:43:28.817Z,101719.47
2023-09-08T17:45:55.753Z,101712.91
2023-09-08T17:48:22.639Z,101710.75
2023-09-08T17:50:49.530Z,101714.59
2023-09-08T17:53:16.201Z,101708.38
2023-09-08T17:55:42.958Z,101713.00
2023-09-08T17:58:09.765Z,101717.94
2023-09-08T18:00:36.560Z,101719.78
2023-09-08T18:03:06.131Z,101720.34
2023-09-08T18:05:33.019Z,101724.97
2023-09-08T18:08:02.348Z,101724.03
2023-09-08T18:10:29.224Z,101724.59
2023-09-08T18:12:56.199Z,101731.53
2023-09-08T18:15:22.967Z,101731.38
2023-09-08T18:17:49.795Z,101730.72
2023-09-08T18:20:16.601Z,101722.47
2023-09-08T18:22:43.590Z,101729.41
2023-09-08T18:25:10.412Z,101727.22
2023-09-08T18:27:37.275Z,101725.03
2023-09-08T18:30:05.538Z,101736.28
2023-09-08T18:32:34.681Z,101728.97
2023-09-08T18:35:02.855Z,101737.44
2023-09-08T18:37:29.625Z,101741.13
2023-09-08T18:39:56.412Z,101740.94
2023-09-08T18:42:23.111Z,101740.28
2023-09-08T18:44:52.385Z,101745.63
2023-09-08T18:47:21.212Z,101745.78
2023-09-08T18:49:53.669Z,101747.91
2023-09-08T18:52:20.300Z,101756.81
2023-09-08T18:54:49.846Z,101761.72
2023-09-08T18:57:34.856Z,101761.06
2023-09-08T19:00:01.802Z,101763.13
2023-09-08T19:02:28.555Z,101760.81
2023-09-08T19:04:55.395Z,101762.94
2023-09-08T19:07:22.174Z,101765.84
2023-09-08T19:09:49.802Z,101758.84
2023-09-08T19:12:16.417Z,101763.31
2023-09-08T19:14:43.154Z,101763.84
2023-09-08T19:17:10.104Z,101761.97
2023-09-08T19:19:37.001Z,101762.53
2023-09-08T19:22:03.896Z,101772.53
2023-09-08T19:24:31.830Z,101764.75
2023-09-08T19:26:59.033Z,101760.88
2023-09-08T19:29:25.648Z,101759.00
2023-09-08T19:31:52.313Z,101764.66
2023-09-08T19:34:19.038Z,101769.09
2023-09-08T19:36:45.749Z,101764.56
2023-09-08T19:39:12.342Z,101765.47
2023-09-08T19:41:38.980Z,101767.56
2023-09-08T19:44:07.089Z,101772.34
2023-09-08T19:46:37.908Z,101762.88
2023-09-08T19:49:04.765Z,101761.78
2023-09-08T19:51:31.482Z,101760.78
2023-09-08T19:53:58.182Z,101761.31
2023-09-08T19:56:25.409Z,101757.84
2023-09-08T19:58:52.386Z,101761.09
2023-09-08T20:01:19.624Z,101756.41
2023-09-08T20:03:46.469Z,101761.31
2023-09-08T20:06:16.658Z,101758.22
2023-09-08T20:08:43.477Z,101755.09
2023-09-08T20:11:10.413Z,101757.97
2023-09-08T20:13:37.730Z,101742.22
2023-09-08T20:16:07.893Z,101751.88
2023-09-08T20:18:36.266Z,101753.19
2023-09-08T20:21:04.451Z,101754.06
2023-09-08T20:23:32.471Z,101758.06
2023-09-08T20:25:59.862Z,101752.16
2023-09-08T20:28:26.803Z,101751.84
2023-09-08T20:31:12.997Z,101757.03
2023-09-08T20:33:41.243Z,101748.81
2023-09-08T20:36:07.973Z,101748.94
2023-09-08T20:38:34.717Z,101746.59
2023-09-08T20:41:01.607Z,101745.91
2023-09-08T20:43:28.192Z,101741.25
2023-09-08T20:46:04.267Z,101737.81
2023-09-08T20:48:32.945Z,101733.16
2023-09-08T20:51:08.327Z,101730.38
2023-09-08T20:53:38.017Z,101735.25
2023-09-08T20:56:08.323Z,101735.66
2023-09-08T20:58:35.168Z,101729.41
2023-09-08T21:01:02.724Z,101734.63
2023-09-08T21:03:29.940Z,101728.75
2023-09-08T21:05:56.864Z,101734.41
2023-09-08T21:08:24.678Z,101733.28
2023-09-08T21:10:51.528Z,101728.16
2023-09-08T21:13:18.229Z,101731.47
2023-09-08T21:15:46.796Z,101729.56
2023-09-08T21:18:13.565Z,101724.50
2023-09-08T21:20:40.356Z,101727.25
2023-09-08T21:23:07.103Z,101726.91
2023-09-08T21:25:35.259Z,101728.56
2023-09-08T21:28:04.669Z,101725.47
2023-09-08T21:30:31.378Z,101730.66
2023-09-08T21:32:58.398Z,101722.78
2023-09-08T21:35:27.407Z,101727.53
2023-09-08T21:37:54.234Z,101727.19
2023-09-08T21:40:20.966Z,101723.31
2023-09-08T21:42:47.755Z,101727.38
2023-09-08T21:45:14.829Z,101725.47
2023-09-08T21:47:41.951Z,101727.91
2023-09-08T21:50:09.446Z,101718.06
2023-09-08T21:52:39.543Z,101731.13
2023-09-08T21:55:07.886Z,101734.75
2023-09-08T21:57:34.765Z,101739.16
2023-09-08T22:00:01.586Z,101740.81
2023-09-08T22:02:29.541Z,101742.53
2023-09-08T22:04:56.800Z,101742.28
2023-09-08T22:07:24.632Z,101737.19
2023-09-08T22:12:34.673Z,101737.75
2023-09-08T22:15:04.303Z,101735.75
2023-09-08T22:17:34.107Z,101727.91
2023-09-08T22:20:01.156Z,101730.34
2023-09-08T22:22:27.912Z,101735.88
2023-09-08T22:25:04.304Z,101733.53
2023-09-08T22:27:31.013Z,101729.22
2023-09-08T22:30:04.342Z,101734.81
2023-09-08T22:32:39.348Z,101725.81
2023-09-08T22:35:06.548Z,101735.44
2023-09-08T22:37:36.362Z,101730.75
2023-09-08T22:40:07.493Z,101725.66
2023-09-08T22:42:37.088Z,101720.53
2023-09-08T22:45:06.205Z,101725.31
2023-09-08T22:47:33.588Z,101722.19
2023-09-08T22:50:02.148Z,101728.59
2023-09-08T22:52:31.127Z,101723.13
2023-09-08T22:55:23.464Z,101724.78
2023-09-08T22:57:56.774Z,101721.31
2023-09-08T23:00:28.606Z,101717.84
2023-09-08T23:02:56.609Z,101717.53
2023-09-08T23:05:23.344Z,101720.72
2023-09-08T23:07:50.016Z,101720.00
2023-09-08T23:10:16.993Z,101725.19
2023-09-08T23:12:43.816Z,101708.66
2023-09-08T23:15:11.239Z,101724.13
2023-09-08T23:17:38.252Z,101720.66
2023-09-08T23:20:22.329Z,101723.09
2023-09-08T23:22:49.193Z,101726.69
2023-09-08T23:25:16.005Z,101717.63
2023-09-08T23:27:42.776Z,101720.41
2023-09-08T23:30:11.232Z,101716.88
2023-09-08T23:32:38.059Z,101718.94
2023-09-08T23:35:06.603Z,101722.88
2023-09-08T23:37:33.812Z,101720.56
2023-09-08T23:42:59.146Z,101719.09
2023-09-08T23:45:25.910Z,101713.94
2023-09-08T23:47:53.666Z,101713.59
2023-09-08T23:50:42.918Z,101718.75
2023-09-08T23:53:09.903Z,101715.66
2023-09-08T23:55:37.504Z,101714.94
2023-09-08T23:58:05.845Z,101709.16
